sensor_id;sensor_type;location;lat;lon;timestamp;pressure;altitude;pressure_sealevel;temperature;humidity
19795;BME280;10057;59.402;17.866;2022-10-31T00:01:40;101524.00;;;2.94;73.81
19795;BME280;10057;59.402;17.866;2022-10-31T00:04:09;101523.09;;;2.94;73.79
19795;BME280;10057;59.402;17.866;2022-10-31T00:06:36;101524.00;;;2.96;73.97
19795;BME280;10057;59.402;17.866;2022-10-31T00:09:04;101524.91;;;2.98;73.84
19795;BME280;10057;59.402;17.866;2022-10-31T00:11:33;101521.41;;;2.99;73.69
19795;BME280;10057;59.402;17.866;2022-10-31T00:14:00;101517.03;;;2.98;73.44
19795;BME280;10057;59.402;17.866;2022-10-31T00:16:30;101513.53;;;2.99;73.66
19795;BME280;10057;59.402;17.866;2022-10-31T00:19:02;101517.06;;;3.02;73.77
19795;BME280;10057;59.402;17.866;2022-10-31T00:21:29;101511.81;;;3.02;73.72
19795;BME280;10057;59.402;17.866;2022-10-31T00:23:57;101514.44;;;3.04;73.77
19795;BME280;10057;59.402;17.866;2022-10-31T00:26:27;101510.03;;;3.00;73.67
19795;BME280;10057;59.402;17.866;2022-10-31T00:28:54;101517.88;;;2.94;73.84
19795;BME280;10057;59.402;17.866;2022-10-31T00:31:20;101521.31;;;2.87;74.01
19795;BME280;10057;59.402;17.866;2022-10-31T00:33:47;101518.66;;;2.79;73.94
19795;BME280;10057;59.402;17.866;2022-10-31T00:36:21;101518.63;;;2.74;74.28
19795;BME280;10057;59.402;17.866;2022-10-31T00:38:48;101514.22;;;2.73;74.27
19795;BME280;10057;59.402;17.866;2022-10-31T00:41:17;101508.13;;;2.76;74.56
19795;BME280;10057;59.402;17.866;2022-10-31T00:43:44;101506.38;;;2.76;74.55
19795;BME280;10057;59.402;17.866;2022-10-31T00:46:12;101509.03;;;2.79;74.71
19795;BME280;10057;59.402;17.866;2022-10-31T00:48:39;101504.69;;;2.78;74.36
19795;BME280;10057;59.402;17.866;2022-10-31T00:51:05;101509.06;;;2.82;74.24
19795;BME280;10057;59.402;17.866;2022-10-31T00:53:32;101516.03;;;2.83;74.40
19795;BME280;10057;59.402;17.866;2022-10-31T00:55:59;101517.81;;;2.86;74.42
19795;BME280;10057;59.402;17.866;2022-10-31T00:58:29;101509.97;;;2.89;74.37
19795;BME280;10057;59.402;17.866;2022-10-31T01:00:55;101505.63;;;2.91;74.64
19795;BME280;10057;59.402;17.866;2022-10-31T01:03:24;101503.03;;;2.91;74.43
19795;BME280;10057;59.402;17.866;2022-10-31T01:06:06;101508.22;;;2.90;74.61
19795;BME280;10057;59.402;17.866;2022-10-31T01:08:34;101507.38;;;2.91;74.44
19795;BME280;10057;59.402;17.866;2022-10-31T01:11:06;101509.16;;;2.95;74.50
19795;BME280;10057;59.402;17.866;2022-10-31T01:13:34;101496.03;;;2.96;74.41
19795;BME280;10057;59.402;17.866;2022-10-31T01:16:02;101495.16;;;2.97;74.39
19795;BME280;10057;59.402;17.866;2022-10-31T01:18:29;101501.31;;;2.98;74.70
19795;BME280;10057;59.402;17.866;2022-10-31T01:20:58;101495.19;;;3.00;74.65
19795;BME280;10057;59.402;17.866;2022-10-31T01:23:25;101500.47;;;3.02;74.22
19795;BME280;10057;59.402;17.866;2022-10-31T01:26:13;101494.28;;;2.94;74.35
19795;BME280;10057;59.402;17.866;2022-10-31T01:28:52;101496.00;;;2.90;74.09
19795;BME280;10057;59.402;17.866;2022-10-31T01:31:21;101496.00;;;2.90;74.44
19795;BME280;10057;59.402;17.866;2022-10-31T01:33:48;101501.28;;;2.92;74.41
19795;BME280;10057;59.402;17.866;2022-10-31T01:38:48;101489.03;;;2.92;74.65
19795;BME280;10057;59.402;17.866;2022-10-31T01:41:21;101487.28;;;2.93;74.43
19795;BME280;10057;59.402;17.866;2022-10-31T01:43:54;101493.44;;;2.95;75.06
19795;BME280;10057;59.402;17.866;2022-10-31T01:46:24;101498.66;;;2.95;74.63
19795;BME280;10057;59.402;17.866;2022-10-31T01:48:56;101499.53;;;2.91;74.65
19795;BME280;10057;59.402;17.866;2022-10-31T01:51:28;101494.22;;;2.83;74.84
19795;BME280;10057;59.402;17.866;2022-10-31T01:53:58;101493.28;;;2.76;74.62
19795;BME280;10057;59.402;17.866;2022-10-31T01:56:26;101488.91;;;2.71;74.88
19795;BME280;10057;59.402;17.866;2022-10-31T01:59:00;101495.03;;;2.74;75.44
19795;BME280;10057;59.402;17.866;2022-10-31T02:01:28;101502.06;;;2.78;75.25
19795;BME280;10057;59.402;17.866;2022-10-31T02:03:59;101500.34;;;2.80;74.82
19795;BME280;10057;59.402;17.866;2022-10-31T02:06:36;101499.44;;;2.83;74.92
19795;BME280;10057;59.402;17.866;2022-10-31T02:09:05;101498.59;;;2.85;75.22
19795;BME280;10057;59.402;17.866;2022-10-31T02:11:35;101501.25;;;2.89;74.68
19795;BME280;10057;59.402;17.866;2022-10-31T02:14:03;101496.03;;;2.92;75.00
19795;BME280;10057;59.402;17.866;2022-10-31T02:16:32;101494.28;;;2.94;74.95
19795;BME280;10057;59.402;17.866;2022-10-31T02:18:59;101500.41;;;2.96;74.83
19795;BME280;10057;59.402;17.866;2022-10-31T02:21:44;101504.75;;;2.94;74.68
19795;BME280;10057;59.402;17.866;2022-10-31T02:32:00;101497.75;;;2.88;74.82
19795;BME280;10057;59.402;17.866;2022-10-31T02:37:55;101498.63;;;2.90;74.98
19795;BME280;10057;59.402;17.866;2022-10-31T02:52:34;101500.22;;;2.68;75.37
19795;BME280;10057;59.402;17.866;2022-10-31T02:58:09;101509.03;;;2.79;75.46
19795;BME280;10057;59.402;17.866;2022-10-31T03:01:03;101510.81;;;2.83;75.57
19795;BME280;10057;59.402;17.866;2022-10-31T03:03:58;101508.22;;;2.87;75.14
19795;BME280;10057;59.402;17.866;2022-10-31T03:06:30;101516.13;;;2.93;75.14
19795;BME280;10057;59.402;17.866;2022-10-31T03:09:28;101499.50;;;2.94;75.27
19795;BME280;10057;59.402;17.866;2022-10-31T03:12:02;101510.03;;;3.00;75.46
19795;BME280;10057;59.402;17.866;2022-10-31T03:14:43;101510.97;;;3.05;75.68
19795;BME280;10057;59.402;17.866;2022-10-31T03:17:24;101514.50;;;3.13;75.63
19795;BME280;10057;59.402;17.866;2022-10-31T03:19:54;101507.56;;;3.18;75.66
19795;BME280;10057;59.402;17.866;2022-10-31T03:22:25;101493.56;;;3.22;75.59
19795;BME280;10057;59.402;17.866;2022-10-31T03:24:54;101494.44;;;3.24;75.67
19795;BME280;10057;59.402;17.866;2022-10-31T03:27:25;101492.72;;;3.29;75.31
19795;BME280;10057;59.402;17.866;2022-10-31T03:29:55;101486.59;;;3.30;75.67
19795;BME280;10057;59.402;17.866;2022-10-31T03:32:27;101487.53;;;3.40;75.65
19795;BME280;10057;59.402;17.866;2022-10-31T03:34:57;101495.41;;;3.48;75.47
19795;BME280;10057;59.402;17.866;2022-10-31T03:37:27;101500.69;;;3.54;76.02
19795;BME280;10057;59.402;17.866;2022-10-31T03:39:58;101499.00;;;3.59;75.70
19795;BME280;10057;59.402;17.866;2022-10-31T03:42:30;101496.34;;;3.65;75.69
19795;BME280;10057;59.402;17.866;2022-10-31T03:45:08;101492.88;;;3.71;75.87
19795;BME280;10057;59.402;17.866;2022-10-31T03:47:37;101499.91;;;3.78;75.99
19795;BME280;10057;59.402;17.866;2022-10-31T03:50:07;101486.78;;;3.83;75.73
19795;BME280;10057;59.402;17.866;2022-10-31T03:55:26;101485.06;;;3.95;76.09
19795;BME280;10057;59.402;17.866;2022-10-31T03:58:02;101479.81;;;4.00;76.22
19795;BME280;10057;59.402;17.866;2022-10-31T04:00:35;101479.84;;;4.04;76.22
19795;BME280;10057;59.402;17.866;2022-10-31T04:03:14;101477.22;;;4.08;76.22
19795;BME280;10057;59.402;17.866;2022-10-31T04:05:44;101484.22;;;4.15;76.22
19795;BME280;10057;59.402;17.866;2022-10-31T04:08:16;101477.22;;;4.20;76.40
19795;BME280;10057;59.402;17.866;2022-10-31T04:10:46;101471.97;;;4.24;76.24
19795;BME280;10057;59.402;17.866;2022-10-31T04:13:19;101470.22;;;4.28;76.26
19795;BME280;10057;59.402;17.866;2022-10-31T04:15:47;101464.97;;;4.33;76.80
19795;BME280;10057;59.402;17.866;2022-10-31T04:18:15;101465.84;;;4.38;76.38
19795;BME280;10057;59.402;17.866;2022-10-31T04:20:42;101459.69;;;4.43;76.74
19795;BME280;10057;59.402;17.866;2022-10-31T04:23:35;101464.09;;;4.46;76.49
19795;BME280;10057;59.402;17.866;2022-10-31T04:26:02;101464.09;;;4.49;76.61
19795;BME280;10057;59.402;17.866;2022-10-31T04:28:36;101458.84;;;4.49;77.08
19795;BME280;10057;59.402;17.866;2022-10-31T04:31:03;101456.22;;;4.52;77.01
19795;BME280;10057;59.402;17.866;2022-10-31T04:33:30;101454.47;;;4.56;76.79
19795;BME280;10057;59.402;17.866;2022-10-31T04:35:56;101457.06;;;4.57;77.32
19795;BME280;10057;59.402;17.866;2022-10-31T04:38:26;101457.94;;;4.59;77.09
19795;BME280;10057;59.402;17.866;2022-10-31T04:40:53;101449.19;;;4.60;76.94
19795;BME280;10057;59.402;17.866;2022-10-31T04:43:21;101448.28;;;4.61;77.34
19795;BME280;10057;59.402;17.866;2022-10-31T04:45:48;101443.06;;;4.63;77.28
19795;BME280;10057;59.402;17.866;2022-10-31T04:48:19;101449.19;;;4.66;77.00
19795;BME280;10057;59.402;17.866;2022-10-31T04:50:46;101447.44;;;4.68;77.77
19795;BME280;10057;59.402;17.866;2022-10-31T04:53:14;101446.53;;;4.72;77.51
19795;BME280;10057;59.402;17.866;2022-10-31T04:55:41;101438.63;;;4.77;77.47
19795;BME280;10057;59.402;17.866;2022-10-31T04:58:09;101438.63;;;4.80;77.82
19795;BME280;10057;59.402;17.866;2022-10-31T05:00:36;101438.63;;;4.85;78.05
19795;BME280;10057;59.402;17.866;2022-10-31T05:03:03;101438.63;;;4.89;78.22
19795;BME280;10057;59.402;17.866;2022-10-31T05:05:31;101434.22;;;4.96;78.02
19795;BME280;10057;59.402;17.866;2022-10-31T05:07:57;101433.31;;;4.98;77.91
19795;BME280;10057;59.402;17.866;2022-10-31T05:10:26;101439.44;;;5.02;78.29
19795;BME280;10057;59.402;17.866;2022-10-31T05:12:55;101442.06;;;5.05;78.38
19795;BME280;10057;59.402;17.866;2022-10-31T05:15:24;101440.31;;;5.10;78.29
19795;BME280;10057;59.402;17.866;2022-10-31T05:17:52;101433.28;;;5.14;78.20
19795;BME280;10057;59.402;17.866;2022-10-31T05:20:22;101431.50;;;5.14;78.66
19795;BME280;10057;59.402;17.866;2022-10-31T05:22:51;101435.00;;;5.21;78.91
19795;BME280;10057;59.402;17.866;2022-10-31T05:25:22;101436.75;;;5.27;78.58
19795;BME280;10057;59.402;17.866;2022-10-31T05:27:54;101423.53;;;5.33;79.26
19795;BME280;10057;59.402;17.866;2022-10-31T05:30:29;101429.66;;;5.41;79.20
19795;BME280;10057;59.402;17.866;2022-10-31T05:32:59;101428.72;;;5.51;78.89
19795;BME280;10057;59.402;17.866;2022-10-31T05:35:31;101428.66;;;5.60;79.23
19795;BME280;10057;59.402;17.866;2022-10-31T05:38:00;101433.88;;;5.66;79.53
19795;BME280;10057;59.402;17.866;2022-10-31T05:40:27;101429.47;;;5.72;79.40
19795;BME280;10057;59.402;17.866;2022-10-31T05:42:55;101420.66;;;5.79;79.10
19795;BME280;10057;59.402;17.866;2022-10-31T05:45:24;101423.25;;;5.85;79.20
19795;BME280;10057;59.402;17.866;2022-10-31T05:48:00;101414.41;;;5.90;79.88
19795;BME280;10057;59.402;17.866;2022-10-31T05:50:29;101420.56;;;5.96;79.96
19795;BME280;10057;59.402;17.866;2022-10-31T05:53:00;101424.03;;;5.98;79.48
19795;BME280;10057;59.402;17.866;2022-10-31T05:55:28;101429.28;;;6.01;79.77
19795;BME280;10057;59.402;17.866;2022-10-31T05:57:55;101427.50;;;6.06;80.18
19795;BME280;10057;59.402;17.866;2022-10-31T06:00:23;101432.75;;;6.09;79.91
19795;BME280;10057;59.402;17.866;2022-10-31T06:03:00;101424.81;;;6.13;79.92
19795;BME280;10057;59.402;17.866;2022-10-31T06:05:28;101426.53;;;6.19;80.06
19795;BME280;10057;59.402;17.866;2022-10-31T06:07:56;101429.94;;;6.29;80.38
19795;BME280;10057;59.402;17.866;2022-10-31T06:10:23;101425.50;;;6.35;80.43
19795;BME280;10057;59.402;17.866;2022-10-31T06:12:52;101431.59;;;6.42;80.51
19795;BME280;10057;59.402;17.866;2022-10-31T06:15:19;101436.84;;;6.47;80.48
19795;BME280;10057;59.402;17.866;2022-10-31T06:18:00;101428.00;;;6.49;80.04
19795;BME280;10057;59.402;17.866;2022-10-31T06:20:28;101441.16;;;6.54;80.64
19795;BME280;10057;59.402;17.866;2022-10-31T06:22:55;101446.41;;;6.57;80.55
19795;BME280;10057;59.402;17.866;2022-10-31T06:25:22;101434.06;;;6.59;80.45
19795;BME280;10057;59.402;17.866;2022-10-31T06:27:49;101442.84;;;6.61;80.63
19795;BME280;10057;59.402;17.866;2022-10-31T06:30:15;101439.31;;;6.63;81.12
19795;BME280;10057;59.402;17.866;2022-10-31T06:32:42;101444.53;;;6.67;81.13
19795;BME280;10057;59.402;17.866;2022-10-31T06:35:32;101441.88;;;6.70;80.72
19795;BME280;10057;59.402;17.866;2022-10-31T06:37:59;101426.88;;;6.73;80.96
19795;BME280;10057;59.402;17.866;2022-10-31T06:40:26;101432.13;;;6.76;81.42
19795;BME280;10057;59.402;17.866;2022-10-31T06:43:00;101440.00;;;6.79;81.55
19795;BME280;10057;59.402;17.866;2022-10-31T06:45:27;101436.47;;;6.82;81.33
19795;BME280;10057;59.402;17.866;2022-10-31T06:47:56;101437.31;;;6.85;81.53
19795;BME280;10057;59.402;17.866;2022-10-31T06:50:46;101425.84;;;6.91;81.58
19795;BME280;10057;59.402;17.866;2022-10-31T06:53:13;101441.56;;;6.99;81.60
19795;BME280;10057;59.402;17.866;2022-10-31T06:55:42;101433.59;;;7.03;81.56
19795;BME280;10057;59.402;17.866;2022-10-31T06:58:12;101444.06;;;7.12;81.82
19795;BME280;10057;59.402;17.866;2022-10-31T07:00:39;101437.84;;;7.18;81.93
19795;BME280;10057;59.402;17.866;2022-10-31T07:03:10;101447.38;;;7.28;82.29
19795;BME280;10057;59.402;17.866;2022-10-31T07:05:37;101449.03;;;7.37;82.18
19795;BME280;10057;59.402;17.866;2022-10-31T07:08:07;101452.41;;;7.45;81.85
19795;BME280;10057;59.402;17.866;2022-10-31T07:10:35;101446.19;;;7.52;81.99
19795;BME280;10057;59.402;17.866;2022-10-31T07:13:10;101444.31;;;7.60;82.49
19795;BME280;10057;59.402;17.866;2022-10-31T07:15:38;101445.09;;;7.67;82.24
19795;BME280;10057;59.402;17.866;2022-10-31T07:18:07;101445.84;;;7.77;82.15
19795;BME280;10057;59.402;17.866;2022-10-31T07:20:34;101451.06;;;7.83;82.42
19795;BME280;10057;59.402;17.866;2022-10-31T07:23:01;101452.72;;;7.90;82.41
19795;BME280;10057;59.402;17.866;2022-10-31T07:25:28;101455.28;;;7.95;82.42
19795;BME280;10057;59.402;17.866;2022-10-31T07:27:55;101453.41;;;8.01;82.48
19795;BME280;10057;59.402;17.866;2022-10-31T07:30:32;101446.31;;;8.05;82.50
19795;BME280;10057;59.402;17.866;2022-10-31T07:32:58;101448.91;;;8.06;82.80
19795;BME280;10057;59.402;17.866;2022-10-31T07:35:27;101458.56;;;8.11;82.78
19795;BME280;10057;59.402;17.866;2022-10-31T07:37:55;101452.38;;;8.12;82.29
19795;BME280;10057;59.402;17.866;2022-10-31T07:40:22;101442.66;;;8.14;83.02
19795;BME280;10057;59.402;17.866;2022-10-31T07:42:51;101450.50;;;8.17;82.69
19795;BME280;10057;59.402;17.866;2022-10-31T07:45:22;101447.81;;;8.20;83.16
19795;BME280;10057;59.402;17.866;2022-10-31T07:47:53;101450.38;;;8.26;82.64
19795;BME280;10057;59.402;17.866;2022-10-31T07:50:25;101455.63;;;8.29;83.06
19795;BME280;10057;59.402;17.866;2022-10-31T07:55:25;101460.78;;;8.38;83.04
19795;BME280;10057;59.402;17.866;2022-10-31T07:57:58;101446.63;;;8.42;83.00
19795;BME280;10057;59.402;17.866;2022-10-31T08:00:29;101449.22;;;8.45;83.60
19795;BME280;10057;59.402;17.866;2022-10-31T08:02:59;101455.31;;;8.47;82.93
19795;BME280;10057;59.402;17.866;2022-10-31T08:05:28;101460.56;;;8.50;82.91
19795;BME280;10057;59.402;17.866;2022-10-31T08:07:55;101460.50;;;8.53;83.30
19795;BME280;10057;59.402;17.866;2022-10-31T08:10:23;101460.47;;;8.57;83.39
19795;BME280;10057;59.402;17.866;2022-10-31T08:15:24;101456.91;;;8.58;83.81
19795;BME280;10057;59.402;17.866;2022-10-31T08:17:51;101454.25;;;8.58;83.42
19795;BME280;10057;59.402;17.866;2022-10-31T08:20:21;101458.69;;;8.59;83.87
19795;BME280;10057;59.402;17.866;2022-10-31T08:23:02;101456.00;;;8.60;83.31
19795;BME280;10057;59.402;17.866;2022-10-31T08:25:31;101463.00;;;8.63;83.46
19795;BME280;10057;59.402;17.866;2022-10-31T08:28:04;101457.72;;;8.63;83.83
19795;BME280;10057;59.402;17.866;2022-10-31T08:30:34;101462.06;;;8.67;84.09
19795;BME280;10057;59.402;17.866;2022-10-31T08:33:09;101461.13;;;8.69;84.13
19795;BME280;10057;59.402;17.866;2022-10-31T08:35:36;101455.78;;;8.72;84.44
19795;BME280;10057;59.402;17.866;2022-10-31T08:38:03;101450.44;;;8.75;84.16
19795;BME280;10057;59.402;17.866;2022-10-31T08:40:32;101449.50;;;8.78;84.48
19795;BME280;10057;59.402;17.866;2022-10-31T08:43:04;101451.22;;;8.82;84.18
19795;BME280;10057;59.402;17.866;2022-10-31T08:45:32;101454.66;;;8.86;84.31
19795;BME280;10057;59.402;17.866;2022-10-31T08:48:01;101445.78;;;8.88;84.19
19795;BME280;10057;59.402;17.866;2022-10-31T08:50:30;101452.84;;;8.89;84.80
19795;BME280;10057;59.402;17.866;2022-10-31T08:53:08;101447.47;;;8.92;84.52
19795;BME280;10057;59.402;17.866;2022-10-31T08:55:38;101450.09;;;8.94;84.55
19795;BME280;10057;59.402;17.866;2022-10-31T08:58:10;101450.91;;;8.97;84.76
19795;BME280;10057;59.402;17.866;2022-10-31T09:00:37;101466.66;;;9.04;85.37
19795;BME280;10057;59.402;17.866;2022-10-31T09:03:07;101472.72;;;9.10;85.17
19795;BME280;10057;59.402;17.866;2022-10-31T09:05:35;101477.00;;;9.16;84.72
19795;BME280;10057;59.402;17.866;2022-10-31T09:08:03;101477.00;;;9.17;85.12
19795;BME280;10057;59.402;17.866;2022-10-31T09:10:32;101477.81;;;9.19;84.85
19795;BME280;10057;59.402;17.866;2022-10-31T09:13:04;101481.31;;;9.21;85.10
19795;BME280;10057;59.402;17.866;2022-10-31T09:15:35;101466.28;;;9.22;85.08
19795;BME280;10057;59.402;17.866;2022-10-31T09:18:02;101467.97;;;9.26;85.02
19795;BME280;10057;59.402;17.866;2022-10-31T09:20:31;101476.72;;;9.31;85.16
19795;BME280;10057;59.402;17.866;2022-10-31T09:22:59;101474.88;;;9.35;84.91
19795;BME280;10057;59.402;17.866;2022-10-31T09:25:27;101476.59;;;9.37;85.02
19795;BME280;10057;59.402;17.866;2022-10-31T09:27:58;101483.56;;;9.41;85.74
19795;BME280;10057;59.402;17.866;2022-10-31T09:30:28;101481.78;;;9.42;84.96
19795;BME280;10057;59.402;17.866;2022-10-31T09:32:58;101471.13;;;9.43;85.70
19795;BME280;10057;59.402;17.866;2022-10-31T09:35:25;101474.63;;;9.45;85.42
19795;BME280;10057;59.402;17.866;2022-10-31T09:37:56;101466.63;;;9.48;85.27
19795;BME280;10057;59.402;17.866;2022-10-31T09:40:31;101457.81;;;9.48;85.28
19795;BME280;10057;59.402;17.866;2022-10-31T09:49:04;101463.84;;;9.55;85.42
19795;BME280;10057;59.402;17.866;2022-10-31T09:51:40;101470.88;;;9.57;84.84
19795;BME280;10057;59.402;17.866;2022-10-31T09:54:42;101472.63;;;9.58;85.56
19795;BME280;10057;59.402;17.866;2022-10-31T09:57:27;101468.19;;;9.59;85.68
19795;BME280;10057;59.402;17.866;2022-10-31T09:59:58;101460.19;;;9.60;85.76
19795;BME280;10057;59.402;17.866;2022-10-31T10:02:30;101453.09;;;9.62;85.43
19795;BME280;10057;59.402;17.866;2022-10-31T10:05:04;101468.88;;;9.67;85.66
19795;BME280;10057;59.402;17.866;2022-10-31T10:07:53;101465.34;;;9.68;85.43
19795;BME280;10057;59.402;17.866;2022-10-31T10:13:50;101472.31;;;9.70;86.23
19795;BME280;10057;59.402;17.866;2022-10-31T10:21:59;101464.31;;;9.73;86.06
19795;BME280;10057;59.402;17.866;2022-10-31T10:30:23;101467.75;;;9.77;85.72
19795;BME280;10057;59.402;17.866;2022-10-31T10:32:57;101458.88;;;9.80;85.67
19795;BME280;10057;59.402;17.866;2022-10-31T10:40:33;101464.84;;;9.89;86.56
19795;BME280;10057;59.402;17.866;2022-10-31T10:51:38;101478.69;;;10.02;85.94
19795;BME280;10057;59.402;17.866;2022-10-31T10:59:39;101480.25;;;10.11;86.60
19795;BME280;10057;59.402;17.866;2022-10-31T11:02:17;101480.19;;;10.14;87.04
19795;BME280;10057;59.402;17.866;2022-10-31T11:08:00;101474.75;;;10.20;86.73
19795;BME280;10057;59.402;17.866;2022-10-31T11:10:29;101479.09;;;10.23;86.84
19795;BME280;10057;59.402;17.866;2022-10-31T11:15:32;101477.22;;;10.29;87.06
19795;BME280;10057;59.402;17.866;2022-10-31T11:18:04;101474.47;;;10.32;86.41
19795;BME280;10057;59.402;17.866;2022-10-31T11:20:36;101484.03;;;10.39;86.72
19795;BME280;10057;59.402;17.866;2022-10-31T11:23:17;101491.00;;;10.43;86.90
19795;BME280;10057;59.402;17.866;2022-10-31T11:25:53;101477.66;;;10.47;87.04
19795;BME280;10057;59.402;17.866;2022-10-31T11:28:20;101483.72;;;10.52;86.80
19795;BME280;10057;59.402;17.866;2022-10-31T11:33:36;101471.00;;;10.64;87.50
19795;BME280;10057;59.402;17.866;2022-10-31T11:38:47;101466.25;;;10.77;87.28
19795;BME280;10057;59.402;17.866;2022-10-31T11:43:58;101457.09;;;10.89;87.24
19795;BME280;10057;59.402;17.866;2022-10-31T11:46:36;101456.06;;;10.95;87.46
19795;BME280;10057;59.402;17.866;2022-10-31T11:49:05;101458.56;;;10.99;87.38
19795;BME280;10057;59.402;17.866;2022-10-31T11:51:37;101462.03;;;11.03;87.47
19795;BME280;10057;59.402;17.866;2022-10-31T11:54:04;101454.03;;;11.04;87.45
19795;BME280;10057;59.402;17.866;2022-10-31T11:56:40;101454.81;;;11.08;87.74
19795;BME280;10057;59.402;17.866;2022-10-31T11:59:31;101452.88;;;11.13;87.70
19795;BME280;10057;59.402;17.866;2022-10-31T12:02:00;101456.28;;;11.18;87.69
19795;BME280;10057;59.402;17.866;2022-10-31T12:04:36;101464.06;;;11.24;87.92
19795;BME280;10057;59.402;17.866;2022-10-31T12:07:04;101465.63;;;11.31;87.76
19795;BME280;10057;59.402;17.866;2022-10-31T12:09:36;101460.19;;;11.36;88.08
19795;BME280;10057;59.402;17.866;2022-10-31T12:12:25;101455.59;;;11.41;87.91
19795;BME280;10057;59.402;17.866;2022-10-31T12:45:49;101434.84;;;11.83;88.42
19795;BME280;10057;59.402;17.866;2022-10-31T12:52:03;101439.13;;;11.89;88.27
19795;BME280;10057;59.402;17.866;2022-10-31T12:54:30;101429.34;;;11.90;88.10
19795;BME280;10057;59.402;17.866;2022-10-31T12:57:29;101429.34;;;11.90;88.07
19795;BME280;10057;59.402;17.866;2022-10-31T13:00:02;101430.19;;;11.92;88.35
19795;BME280;10057;59.402;17.866;2022-10-31T13:02:35;101430.09;;;11.95;88.46
19795;BME280;10057;59.402;17.866;2022-10-31T13:05:29;101434.38;;;11.99;88.71
19795;BME280;10057;59.402;17.866;2022-10-31T13:10:40;101438.75;;;12.01;88.26
19795;BME280;10057;59.402;17.866;2022-10-31T13:13:26;101440.47;;;12.02;88.54
19795;BME280;10057;59.402;17.866;2022-10-31T13:16:01;101443.09;;;12.04;88.63
19795;BME280;10057;59.402;17.866;2022-10-31T13:18:38;101441.31;;;12.04;88.58
19795;BME280;10057;59.402;17.866;2022-10-31T13:21:35;101439.44;;;12.06;88.58
19795;BME280;10057;59.402;17.866;2022-10-31T13:24:09;101443.88;;;12.07;88.26
19795;BME280;10057;59.402;17.866;2022-10-31T13:26:48;101440.34;;;12.07;88.26
19795;BME280;10057;59.402;17.866;2022-10-31T13:29:39;101440.34;;;12.07;88.62
19795;BME280;10057;59.402;17.866;2022-10-31T13:32:10;101455.38;;;12.08;88.44
19795;BME280;10057;59.402;17.866;2022-10-31T13:34:39;101452.72;;;12.08;88.44
19795;BME280;10057;59.402;17.866;2022-10-31T13:40:09;101450.16;;;12.05;88.21
19795;BME280;10057;59.402;17.866;2022-10-31T13:45:20;101434.19;;;12.05;88.17
19795;BME280;10057;59.402;17.866;2022-10-31T13:50:28;101438.66;;;12.04;88.15
19795;BME280;10057;59.402;17.866;2022-10-31T13:53:19;101434.19;;;12.05;87.87
19795;BME280;10057;59.402;17.866;2022-10-31T13:55:49;101434.19;;;12.05;87.73
19795;BME280;10057;59.402;17.866;2022-10-31T13:58:23;101437.69;;;12.07;88.20
19795;BME280;10057;59.402;17.866;2022-10-31T14:00:59;101436.75;;;12.08;87.81
19795;BME280;10057;59.402;17.866;2022-10-31T14:03:30;101428.72;;;12.09;88.07
19795;BME280;10057;59.402;17.866;2022-10-31T14:06:17;101428.72;;;12.09;87.81
19795;BME280;10057;59.402;17.866;2022-10-31T14:08:51;101429.56;;;12.10;87.94
19795;BME280;10057;59.402;17.866;2022-10-31T14:11:24;101434.91;;;12.10;87.77
19795;BME280;10057;59.402;17.866;2022-10-31T14:14:00;101426.03;;;12.11;87.84
19795;BME280;10057;59.402;17.866;2022-10-31T14:16:29;101423.34;;;12.11;87.99
19795;BME280;10057;59.402;17.866;2022-10-31T14:19:13;101425.94;;;12.13;87.55
19795;BME280;10057;59.402;17.866;2022-10-31T14:21:43;101426.03;;;12.11;87.68
19795;BME280;10057;59.402;17.866;2022-10-31T14:29:30;101429.44;;;12.15;87.83
19795;BME280;10057;59.402;17.866;2022-10-31T14:32:18;101425.00;;;12.15;87.71
19795;BME280;10057;59.402;17.866;2022-10-31T14:35:13;101428.59;;;12.14;87.45
19795;BME280;10057;59.402;17.866;2022-10-31T14:38:11;101422.41;;;12.14;87.56
19795;BME280;10057;59.402;17.866;2022-10-31T14:40:52;101415.28;;;12.14;87.44
19795;BME280;10057;59.402;17.866;2022-10-31T14:43:33;101417.94;;;12.14;87.67
19795;BME280;10057;59.402;17.866;2022-10-31T14:46:10;101410.97;;;12.10;87.31
19795;BME280;10057;59.402;17.866;2022-10-31T14:49:01;101415.38;;;12.11;87.60
19795;BME280;10057;59.402;17.866;2022-10-31T14:51:36;101404.78;;;12.09;87.46
19795;BME280;10057;59.402;17.866;2022-10-31T14:54:06;101403.91;;;12.09;87.58
19795;BME280;10057;59.402;17.866;2022-10-31T14:56:37;101405.78;;;12.07;87.40
19795;BME280;10057;59.402;17.866;2022-10-31T14:59:14;101407.66;;;12.03;87.32
19795;BME280;10057;59.402;17.866;2022-10-31T15:01:52;101410.44;;;11.99;87.45
19795;BME280;10057;59.402;17.866;2022-10-31T15:04:28;101421.28;;;11.93;87.24
19795;BME280;10057;59.402;17.866;2022-10-31T15:09:34;101413.56;;;11.85;87.49
19795;BME280;10057;59.402;17.866;2022-10-31T15:12:37;101411.03;;;11.79;87.61
19795;BME280;10057;59.402;17.866;2022-10-31T15:17:49;101405.19;;;11.69;87.47
19795;BME280;10057;59.402;17.866;2022-10-31T15:20:19;101407.09;;;11.64;87.59
19795;BME280;10057;59.402;17.866;2022-10-31T15:22:47;101403.72;;;11.59;87.72
19795;BME280;10057;59.402;17.866;2022-10-31T15:25:20;101418.81;;;11.57;87.56
19795;BME280;10057;59.402;17.866;2022-10-31T15:27:48;101413.59;;;11.54;87.42
19795;BME280;10057;59.402;17.866;2022-10-31T15:30:21;101414.72;;;11.47;87.50
19795;BME280;10057;59.402;17.866;2022-10-31T15:32:49;101419.19;;;11.45;87.54
19795;BME280;10057;59.402;17.866;2022-10-31T15:35:27;101419.28;;;11.42;87.69
19795;BME280;10057;59.402;17.866;2022-10-31T15:37:58;101421.13;;;11.39;87.83
19795;BME280;10057;59.402;17.866;2022-10-31T15:40:27;101423.88;;;11.36;87.78